createdAt,value
2019-04-29T00:02:36.886Z,13.40
2019-04-29T00:07:41.202Z,13.20
2019-04-29T00:12:45.223Z,13.30
2019-04-29T00:17:59.403Z,13.20
2019-04-29T00:23:03.656Z,13.40
2019-04-29T00:28:07.662Z,13.30
2019-04-29T00:33:12.015Z,13.40
2019-04-29T00:38:34.050Z,13.10
2019-04-29T00:44:03.260Z,12.90
2019-04-29T00:49:08.500Z,12.90
2019-04-29T00:54:19.492Z,13.10
2019-04-29T00:59:23.441Z,13.00
2019-04-29T01:04:27.718Z,13.00
2019-04-29T01:09:31.718Z,13.10
2019-04-29T01:14:36.007Z,13.10
2019-04-29T01:19:39.846Z,12.90
2019-04-29T01:24:44.246Z,13.10
2019-04-29T01:29:48.642Z,13.00
2019-04-29T01:34:54.631Z,12.80
2019-04-29T01:40:08.735Z,13.00
2019-04-29T01:45:13.025Z,12.70
2019-04-29T01:50:17.152Z,12.90
2019-04-29T01:55:21.745Z,13.10
2019-04-29T02:00:25.811Z,12.90
2019-04-29T02:05:30.127Z,12.90
2019-04-29T02:10:35.418Z,12.60
2019-04-29T02:15:39.647Z,12.50
2019-04-29T02:20:43.679Z,12.80
2019-04-29T02:25:48.324Z,12.80
2019-04-29T02:30:53.082Z,12.50
2019-04-29T02:35:57.832Z,12.50
2019-04-29T02:41:18.131Z,12.50
2019-04-29T02:46:22.101Z,12.70
2019-04-29T02:51:44.414Z,12.50
2019-04-29T02:56:53.974Z,12.40
2019-04-29T03:02:23.082Z,12.40
2019-04-29T03:07:27.098Z,12.70
2019-04-29T03:12:31.163Z,12.70
2019-04-29T03:17:35.725Z,12.70
2019-04-29T03:22:41.077Z,12.40
2019-04-29T03:27:45.154Z,12.60
2019-04-29T03:32:49.142Z,12.40
2019-04-29T03:37:53.294Z,12.70
2019-04-29T03:42:57.266Z,12.10
2019-04-29T03:48:01.628Z,12.10
2019-04-29T03:53:06.340Z,12.50
2019-04-29T03:58:10.670Z,12.20
2019-04-29T04:03:32.127Z,12.10
2019-04-29T04:08:38.761Z,12.40
2019-04-29T04:13:45.732Z,12.30
2019-04-29T04:18:51.651Z,12.10
2019-04-29T04:23:58.115Z,12.10
2019-04-29T04:29:01.629Z,12.20
2019-04-29T04:34:05.708Z,12.20
2019-04-29T04:39:11.689Z,12.00
2019-04-29T04:44:15.887Z,12.10
2019-04-29T04:49:20.187Z,12.20
2019-04-29T04:54:24.153Z,12.00
2019-04-29T04:59:28.406Z,12.00
2019-04-29T05:04:32.639Z,11.90
2019-04-29T05:09:37.188Z,12.20
2019-04-29T05:14:41.158Z,12.30
2019-04-29T05:19:45.056Z,12.30
2019-04-29T05:24:49.307Z,11.80
2019-04-29T05:29:53.513Z,12.30
2019-04-29T05:34:59.159Z,12.10
2019-04-29T05:40:03.218Z,12.10
2019-04-29T05:45:22.191Z,12.00
2019-04-29T05:50:47.571Z,12.20
2019-04-29T05:55:52.466Z,11.90
2019-04-29T06:00:59.630Z,12.00
2019-04-29T06:06:03.665Z,12.00
2019-04-29T06:11:08.027Z,12.00
2019-04-29T06:16:15.815Z,12.00
2019-04-29T06:21:18.377Z,12.10
2019-04-29T06:26:22.336Z,12.10
2019-04-29T06:31:26.292Z,12.30
2019-04-29T06:36:31.049Z,12.10
2019-04-29T06:41:35.268Z,12.10
2019-04-29T06:46:40.021Z,12.50
2019-04-29T06:51:44.034Z,12.10
2019-04-29T06:56:48.699Z,12.40
2019-04-29T07:01:52.728Z,12.70
2019-04-29T07:06:57.939Z,12.70
2019-04-29T07:12:02.308Z,12.70
2019-04-29T07:17:07.244Z,12.70
2019-04-29T07:22:11.371Z,12.50
2019-04-29T07:27:15.630Z,12.60
2019-04-29T07:32:20.159Z,12.50
2019-04-29T07:37:24.395Z,12.50
2019-04-29T07:42:32.280Z,12.70
2019-04-29T07:47:35.010Z,12.50
2019-04-29T07:52:38.971Z,12.80
2019-04-29T07:57:43.170Z,13.00
2019-04-29T08:02:47.510Z,13.10
2019-04-29T08:07:51.650Z,13.10
2019-04-29T08:12:58.739Z,13.10
2019-04-29T08:18:06.754Z,13.10
2019-04-29T08:23:08.706Z,13.20
2019-04-29T08:28:12.654Z,13.00
2019-04-29T08:33:16.617Z,13.20
2019-04-29T08:38:20.967Z,13.40
2019-04-29T08:43:47.488Z,13.90
2019-04-29T08:48:51.759Z,13.90
2019-04-29T08:53:56.007Z,14.00
2019-04-29T08:59:00.131Z,14.10
2019-04-29T09:04:04.159Z,14.20
2019-04-29T09:09:10.465Z,14.40
2019-04-29T09:14:14.197Z,14.50
2019-04-29T09:19:18.767Z,14.40
2019-04-29T09:24:22.791Z,14.70
2019-04-29T09:29:36.962Z,14.70
2019-04-29T09:34:40.907Z,14.70
2019-04-29T09:39:46.755Z,14.80
2019-04-29T09:45:24.377Z,14.80
2019-04-29T09:50:28.648Z,15.30
2019-04-29T09:55:35.696Z,15.10
2019-04-29T10:00:45.820Z,15.30
2019-04-29T10:06:04.651Z,15.10
2019-04-29T10:11:09.613Z,15.30
2019-04-29T10:16:36.045Z,15.30
2019-04-29T10:21:38.574Z,15.40
2019-04-29T10:26:43.091Z,15.30
2019-04-29T10:31:47.427Z,15.30
2019-04-29T10:36:52.568Z,15.30
2019-04-29T10:41:59.191Z,15.50
2019-04-29T10:47:28.793Z,15.40
2019-04-29T10:52:34.566Z,15.60
2019-04-29T10:57:39.433Z,15.50
2019-04-29T11:02:44.717Z,15.80
2019-04-29T11:07:49.835Z,15.60
2019-04-29T11:12:54.730Z,16.00
2019-04-29T11:18:03.038Z,15.90
2019-04-29T11:23:18.112Z,16.00
2019-04-29T11:28:21.819Z,16.20
2019-04-29T11:33:35.517Z,16.20
2019-04-29T11:38:41.451Z,16.60
2019-04-29T11:43:46.712Z,16.50
2019-04-29T11:48:54.232Z,16.30
2019-04-29T11:53:58.474Z,16.50
2019-04-29T11:59:19.384Z,16.60
2019-04-29T12:04:33.409Z,16.60
2019-04-29T12:09:35.495Z,16.80
2019-04-29T12:14:48.305Z,16.70
2019-04-29T12:19:55.875Z,16.60
2019-04-29T12:25:00.103Z,16.60
2019-04-29T12:30:07.207Z,16.70
2019-04-29T12:35:16.617Z,16.70
2019-04-29T12:40:55.119Z,16.70
2019-04-29T12:46:12.883Z,16.80
2019-04-29T12:51:17.215Z,16.80
2019-04-29T12:56:30.673Z,16.90
2019-04-29T13:02:06.616Z,16.90
2019-04-29T13:07:33.025Z,17.10
2019-04-29T13:12:39.761Z,17.10
2019-04-29T13:18:02.664Z,16.80
2019-04-29T13:22:59.004Z,17.10
2019-04-29T13:28:04.423Z,16.90
2019-04-29T13:33:16.408Z,17.10
2019-04-29T13:38:15.972Z,17.10
2019-04-29T13:43:20.835Z,17.20
2019-04-29T13:48:55.200Z,17.30
2019-04-29T13:53:49.478Z,17.10
2019-04-29T13:58:53.910Z,17.20
2019-04-29T14:04:14.422Z,17.00
2019-04-29T14:09:18.985Z,17.10
2019-04-29T14:14:24.495Z,17.10
2019-04-29T14:19:44.789Z,17.10
2019-04-29T14:24:35.443Z,16.90
2019-04-29T14:29:40.424Z,17.00
2019-04-29T14:34:51.442Z,17.00
2019-04-29T14:39:55.395Z,16.80
2019-04-29T14:45:17.370Z,16.90
2019-04-29T14:50:21.417Z,16.80
2019-04-29T14:55:27.069Z,16.80
2019-04-29T15:00:49.114Z,16.60
2019-04-29T15:05:53.686Z,16.60
2019-04-29T15:10:57.828Z,16.70
2019-04-29T15:16:09.652Z,16.50
2019-04-29T15:21:31.668Z,16.50
2019-04-29T15:26:25.766Z,16.90
2019-04-29T15:31:30.095Z,16.70
2019-04-29T15:36:34.832Z,17.10
2019-04-29T15:41:39.979Z,17.20
2019-04-29T15:46:47.227Z,17.40
2019-04-29T15:51:51.031Z,17.20
2019-04-29T15:56:55.641Z,16.80
2019-04-29T16:02:04.343Z,16.90
2019-04-29T16:07:46.739Z,16.90
2019-04-29T16:12:52.582Z,16.40
2019-04-29T16:17:56.928Z,16.50
2019-04-29T16:23:02.203Z,16.60
2019-04-29T16:28:07.053Z,16.40
2019-04-29T16:33:14.362Z,16.40
2019-04-29T16:38:17.651Z,16.30
2019-04-29T16:43:35.985Z,16.20
2019-04-29T16:48:40.428Z,16.10
2019-04-29T16:53:44.315Z,16.20
2019-04-29T16:58:48.503Z,16.20
2019-04-29T17:03:52.892Z,15.90
2019-04-29T17:09:23.035Z,15.80
2019-04-29T17:14:25.803Z,16.00
2019-04-29T17:19:30.041Z,16.00
2019-04-29T17:24:34.267Z,16.40
2019-04-29T17:30:08.084Z,16.30
2019-04-29T17:35:12.935Z,15.90
2019-04-29T17:40:19.916Z,16.00
2019-04-29T17:45:31.678Z,16.10
2019-04-29T17:51:01.007Z,15.80
2019-04-29T17:56:12.009Z,15.90
2019-04-29T18:01:36.858Z,15.70
2019-04-29T18:06:44.983Z,15.70
2019-04-29T18:11:53.516Z,15.70
2019-04-29T18:16:57.871Z,15.70
2019-04-29T18:22:20.231Z,15.70
2019-04-29T18:27:25.379Z,15.60
2019-04-29T18:32:35.638Z,15.60
2019-04-29T18:37:38.393Z,15.40
2019-04-29T18:42:43.351Z,15.30
2019-04-29T18:47:47.943Z,15.40
2019-04-29T18:52:52.629Z,15.50
2019-04-29T18:57:58.471Z,15.20
2019-04-29T19:03:02.895Z,15.60
2019-04-29T19:08:14.370Z,15.50
2019-04-29T19:13:16.169Z,15.60
2019-04-29T19:18:21.104Z,15.40
2019-04-29T19:23:29.164Z,15.20
2019-04-29T19:28:32.549Z,15.20
2019-04-29T19:33:39.318Z,15.00
2019-04-29T19:38:45.677Z,15.20
2019-04-29T19:43:55.061Z,15.00
2019-04-29T19:48:58.254Z,14.90
2019-04-29T19:54:02.565Z,15.10
2019-04-29T19:59:11.978Z,15.20
2019-04-29T20:04:34.811Z,15.10
2019-04-29T20:09:40.048Z,15.00
2019-04-29T20:14:45.094Z,15.10
2019-04-29T20:20:00.118Z,14.70
2019-04-29T20:25:02.044Z,14.90
2019-04-29T20:30:15.769Z,15.10
2019-04-29T20:35:13.284Z,15.00
2019-04-29T20:40:17.647Z,14.60
2019-04-29T20:45:25.470Z,14.80
2019-04-29T20:50:28.011Z,14.80
2019-04-29T20:55:36.586Z,14.80
2019-04-29T21:00:39.844Z,14.60
2019-04-29T21:05:48.201Z,14.90
2019-04-29T21:10:51.676Z,14.50
2019-04-29T21:16:00.651Z,14.60
2019-04-29T21:21:07.823Z,14.50
2019-04-29T21:26:11.054Z,14.60
2019-04-29T21:31:18.540Z,14.50
2019-04-29T21:36:30.679Z,14.40
2019-04-29T21:41:45.861Z,14.60
2019-04-29T21:46:50.325Z,14.30
2019-04-29T21:51:55.547Z,14.60
2019-04-29T21:56:59.506Z,14.50
2019-04-29T22:02:06.659Z,14.60
2019-04-29T22:07:10.739Z,14.60
2019-04-29T22:12:20.181Z,14.60
2019-04-29T22:17:21.030Z,14.40
2019-04-29T22:22:25.391Z,14.60
2019-04-29T22:27:34.226Z,14.40
2019-04-29T22:32:36.211Z,14.70
2019-04-29T22:37:40.217Z,14.40
2019-04-29T22:43:10.184Z,14.50
2019-04-29T22:48:17.433Z,14.50
2019-04-29T22:53:18.852Z,14.40
2019-04-29T22:58:24.912Z,14.70
2019-04-29T23:03:32.803Z,14.40
2019-04-29T23:08:38.036Z,14.60
2019-04-29T23:13:40.770Z,14.40
2019-04-29T23:18:45.839Z,14.30
2019-04-29T23:23:55.164Z,14.40
2019-04-29T23:29:03.297Z,14.30
2019-04-29T23:34:05.890Z,14.60
2019-04-29T23:39:09.986Z,14.30
2019-04-29T23:44:14.301Z,14.50
2019-04-29T23:49:19.447Z,14.50
2019-04-29T23:54:25.210Z,14.40
2019-04-29T23:59:31.495Z,14.30
